createdAt,value
2018-06-29T00:01:15.139Z,61.29
2018-06-29T00:03:42.366Z,62.38
2018-06-29T00:06:09.654Z,62.64
2018-06-29T00:08:37.001Z,60.75
2018-06-29T00:11:04.273Z,62.03
2018-06-29T00:13:31.544Z,62.64
2018-06-29T00:16:01.353Z,62.21
2018-06-29T00:21:18.840Z,63.27
2018-06-29T00:23:46.058Z,62.67
2018-06-29T00:26:13.323Z,63.52
2018-06-29T00:28:40.566Z,63.16
2018-06-29T00:31:07.818Z,62.83
2018-06-29T00:33:35.078Z,62.48
2018-06-29T00:36:02.313Z,62.09
2018-06-29T00:38:29.522Z,62.85
2018-06-29T00:40:56.800Z,62.80
2018-06-29T00:43:24.085Z,63.03
2018-06-29T00:45:51.376Z,63.22
2018-06-29T00:48:18.661Z,62.77
2018-06-29T00:50:45.923Z,62.75
2018-06-29T00:53:13.218Z,62.63
2018-06-29T00:55:40.488Z,62.38
2018-06-29T00:58:07.724Z,62.68
2018-06-29T01:00:35.034Z,62.87
2018-06-29T01:03:02.265Z,63.16
2018-06-29T01:05:29.551Z,63.66
2018-06-29T01:07:56.832Z,64.19
2018-06-29T01:10:24.122Z,64.91
2018-06-29T01:12:51.385Z,64.74
2018-06-29T01:15:18.640Z,64.31
2018-06-29T01:17:45.946Z,64.67
2018-06-29T01:20:13.173Z,64.24
2018-06-29T01:22:40.434Z,64.53
2018-06-29T01:25:07.862Z,64.00
2018-06-29T01:27:35.157Z,63.51
2018-06-29T01:30:02.422Z,63.33
2018-06-29T01:32:29.706Z,62.40
2018-06-29T01:34:56.950Z,61.65
2018-06-29T01:37:24.222Z,61.96
2018-06-29T01:39:51.453Z,61.76
2018-06-29T01:42:18.751Z,61.75
2018-06-29T01:44:45.998Z,61.30
2018-06-29T01:47:13.284Z,60.65
2018-06-29T01:49:40.514Z,60.84
2018-06-29T01:52:07.794Z,60.73
2018-06-29T01:54:35.060Z,59.07
2018-06-29T01:57:02.316Z,61.35
2018-06-29T01:59:29.597Z,61.00
2018-06-29T02:01:56.873Z,61.36
2018-06-29T02:04:24.128Z,61.52
2018-06-29T02:06:51.399Z,61.01
2018-06-29T02:09:18.664Z,61.42
2018-06-29T02:11:45.979Z,62.08
2018-06-29T02:14:13.289Z,62.97
2018-06-29T02:16:40.561Z,62.48
2018-06-29T02:19:07.805Z,61.08
2018-06-29T02:21:35.036Z,62.13
2018-06-29T02:24:02.370Z,62.23
2018-06-29T02:26:29.637Z,62.58
2018-06-29T02:28:56.890Z,62.44
2018-06-29T02:31:24.099Z,62.28
2018-06-29T02:33:51.523Z,62.14
2018-06-29T02:36:18.770Z,62.06
2018-06-29T02:38:46.069Z,62.33
2018-06-29T02:41:13.323Z,62.60
2018-06-29T02:43:40.586Z,62.16
2018-06-29T02:46:07.866Z,61.74
2018-06-29T02:48:35.193Z,61.51
2018-06-29T02:51:02.470Z,60.77
2018-06-29T02:53:29.965Z,60.29
2018-06-29T02:55:57.336Z,60.46
2018-06-29T02:58:24.724Z,60.55
2018-06-29T03:00:52.152Z,60.99
2018-06-29T03:03:19.543Z,61.11
2018-06-29T03:05:46.944Z,60.96
2018-06-29T03:08:14.336Z,62.31
2018-06-29T03:10:41.817Z,65.04
2018-06-29T03:13:09.212Z,66.66
2018-06-29T03:15:36.662Z,67.00
2018-06-29T03:18:04.160Z,67.02
2018-06-29T03:20:32.964Z,66.55
2018-06-29T03:23:00.695Z,67.28
2018-06-29T03:25:29.433Z,66.85
2018-06-29T03:27:56.755Z,66.50
2018-06-29T03:30:24.163Z,66.43
2018-06-29T03:33:08.261Z,66.96
2018-06-29T03:35:35.681Z,66.31
2018-06-29T03:38:03.151Z,66.39
2018-06-29T03:40:30.683Z,65.53
2018-06-29T03:42:58.182Z,66.15
2018-06-29T03:45:25.599Z,66.17
2018-06-29T03:47:53.122Z,65.37
2018-06-29T03:50:20.501Z,65.32
2018-06-29T03:52:47.883Z,65.07
2018-06-29T03:55:15.448Z,64.81
2018-06-29T03:57:42.783Z,64.71
2018-06-29T04:00:10.314Z,65.07
2018-06-29T04:02:37.747Z,64.86
2018-06-29T04:05:05.129Z,64.82
2018-06-29T04:07:32.456Z,63.94
2018-06-29T04:09:59.800Z,63.25
2018-06-29T04:12:27.139Z,61.89
2018-06-29T04:14:54.740Z,61.58
2018-06-29T04:17:22.304Z,61.44
2018-06-29T04:19:49.695Z,61.75
2018-06-29T04:22:17.059Z,61.36
2018-06-29T04:24:44.530Z,61.56
2018-06-29T04:27:12.532Z,62.30
2018-06-29T04:29:39.984Z,62.52
2018-06-29T04:32:07.310Z,63.56
2018-06-29T04:34:35.429Z,64.88
2018-06-29T04:37:03.728Z,65.29
2018-06-29T04:39:31.123Z,65.04
2018-06-29T04:41:58.559Z,64.83
2018-06-29T04:44:26.003Z,64.79
2018-06-29T04:46:53.386Z,64.42
2018-06-29T04:49:20.790Z,64.71
2018-06-29T04:51:48.113Z,64.63
2018-06-29T04:54:15.484Z,63.82
2018-06-29T04:56:42.994Z,63.57
2018-06-29T04:59:10.321Z,63.94
2018-06-29T05:01:37.858Z,63.44
2018-06-29T05:04:05.219Z,63.63
2018-06-29T05:06:32.688Z,63.15
2018-06-29T05:09:00.067Z,62.34
2018-06-29T05:11:27.609Z,63.03
2018-06-29T05:13:54.999Z,62.30
2018-06-29T05:16:22.387Z,61.24
2018-06-29T05:18:49.715Z,60.41
2018-06-29T05:21:17.109Z,59.85
2018-06-29T05:23:44.479Z,59.34
2018-06-29T05:26:11.936Z,58.56
2018-06-29T05:28:40.277Z,56.89
2018-06-29T05:31:07.717Z,54.62
2018-06-29T05:33:35.135Z,53.59
2018-06-29T05:36:02.533Z,52.56
2018-06-29T05:38:29.869Z,51.07
2018-06-29T05:40:57.298Z,49.45
2018-06-29T05:43:25.031Z,48.09
2018-06-29T05:45:52.520Z,47.42
2018-06-29T05:48:20.181Z,46.79
2018-06-29T05:50:47.547Z,46.56
2018-06-29T05:53:14.913Z,46.43
2018-06-29T05:55:43.062Z,45.01
2018-06-29T05:58:10.809Z,46.05
2018-06-29T06:00:38.763Z,46.29
2018-06-29T06:03:06.387Z,45.56
2018-06-29T06:05:34.912Z,44.12
2018-06-29T06:08:02.547Z,42.81
2018-06-29T06:10:29.985Z,41.54
2018-06-29T06:12:57.398Z,41.48
2018-06-29T06:15:24.905Z,40.97
2018-06-29T06:17:52.706Z,40.45
2018-06-29T06:20:20.144Z,40.81
2018-06-29T06:22:47.629Z,40.55
2018-06-29T06:25:15.022Z,39.08
2018-06-29T06:27:42.564Z,38.79
2018-06-29T06:30:10.065Z,37.85
2018-06-29T06:32:37.458Z,37.80
2018-06-29T06:35:05.788Z,39.00
2018-06-29T06:37:33.169Z,37.22
2018-06-29T06:40:00.575Z,38.21
2018-06-29T06:42:28.836Z,36.52
2018-06-29T06:44:56.179Z,36.21
2018-06-29T06:47:23.628Z,35.20
2018-06-29T06:49:51.150Z,35.53
2018-06-29T06:52:18.535Z,35.05
2018-06-29T06:54:46.906Z,34.55
2018-06-29T06:57:14.242Z,34.35
2018-06-29T06:59:41.661Z,33.83
2018-06-29T07:02:09.020Z,33.02
2018-06-29T07:04:36.385Z,33.17
2018-06-29T07:07:03.792Z,33.29
2018-06-29T07:09:31.219Z,32.74
2018-06-29T07:11:58.581Z,31.90
2018-06-29T07:14:25.970Z,32.05
2018-06-29T07:16:53.383Z,31.89
2018-06-29T07:19:20.812Z,30.72
2018-06-29T07:21:48.179Z,30.70
2018-06-29T07:24:15.555Z,30.55
2018-06-29T07:26:42.918Z,30.67
2018-06-29T07:29:10.341Z,29.80
2018-06-29T07:31:37.736Z,29.80
2018-06-29T07:34:05.142Z,29.71
2018-06-29T07:36:33.422Z,29.54
2018-06-29T07:39:00.864Z,29.10
2018-06-29T07:41:28.646Z,28.87
2018-06-29T07:43:56.160Z,28.95
2018-06-29T07:46:23.516Z,28.38
2018-06-29T07:48:51.546Z,28.02
2018-06-29T07:51:18.968Z,28.09
2018-06-29T07:53:46.544Z,28.02
2018-06-29T07:56:14.681Z,27.44
2018-06-29T07:58:42.097Z,28.00
2018-06-29T08:01:09.438Z,28.92
2018-06-29T08:03:37.798Z,27.81
2018-06-29T08:06:05.235Z,27.29
2018-06-29T08:08:33.115Z,27.27
2018-06-29T08:11:00.653Z,26.92
2018-06-29T08:13:28.565Z,27.29
2018-06-29T08:15:56.123Z,26.75
2018-06-29T08:18:24.566Z,27.21
2018-06-29T08:20:52.012Z,26.29
2018-06-29T08:23:19.991Z,26.21
2018-06-29T08:25:47.928Z,26.11
2018-06-29T08:28:15.876Z,26.31
2018-06-29T08:30:43.352Z,26.07
2018-06-29T08:33:10.748Z,25.58
2018-06-29T08:35:38.586Z,25.21
2018-06-29T08:38:06.795Z,25.17
2018-06-29T08:40:34.242Z,24.32
2018-06-29T08:43:01.666Z,25.05
2018-06-29T08:45:29.208Z,24.25
2018-06-29T08:47:57.238Z,25.00
2018-06-29T08:50:24.711Z,24.40
2018-06-29T08:52:52.133Z,24.48
2018-06-29T08:55:19.514Z,25.03
2018-06-29T08:57:47.170Z,25.15
2018-06-29T09:00:14.535Z,24.68
2018-06-29T09:02:41.908Z,24.36
2018-06-29T09:05:09.282Z,24.54
2018-06-29T09:07:36.756Z,23.42
2018-06-29T09:10:05.692Z,23.00
2018-06-29T09:12:33.643Z,23.84
2018-06-29T09:15:01.647Z,24.91
2018-06-29T09:17:29.069Z,24.57
2018-06-29T09:19:57.966Z,23.89
2018-06-29T09:22:26.003Z,23.83
2018-06-29T09:24:54.104Z,23.62
2018-06-29T09:27:21.582Z,24.70
2018-06-29T09:29:48.872Z,24.02
2018-06-29T09:32:16.287Z,24.73
2018-06-29T09:34:44.174Z,24.06
2018-06-29T09:37:11.616Z,23.89
2018-06-29T09:39:38.986Z,23.77
2018-06-29T09:42:06.806Z,24.16
2018-06-29T09:44:34.752Z,23.29
2018-06-29T09:47:02.213Z,22.87
2018-06-29T09:49:29.613Z,24.64
2018-06-29T09:51:56.947Z,23.86
2018-06-29T09:54:24.390Z,23.20
2018-06-29T09:56:51.778Z,23.54
2018-06-29T09:59:19.266Z,23.37
2018-06-29T10:01:46.712Z,23.47
2018-06-29T10:04:14.742Z,22.62
2018-06-29T10:06:42.334Z,22.51
2018-06-29T10:09:10.852Z,22.10
2018-06-29T10:11:38.270Z,21.61
2018-06-29T10:14:06.051Z,23.23
2018-06-29T10:16:33.450Z,20.94
2018-06-29T10:19:01.037Z,20.92
2018-06-29T10:21:28.485Z,21.16
2018-06-29T10:23:55.859Z,20.40
2018-06-29T10:26:24.184Z,20.35
2018-06-29T10:28:51.549Z,20.42
2018-06-29T10:31:19.602Z,21.17
2018-06-29T10:33:47.022Z,22.68
2018-06-29T10:36:14.678Z,21.87
2018-06-29T10:38:42.090Z,21.26
2018-06-29T10:41:09.591Z,21.25
2018-06-29T10:43:37.003Z,19.91
2018-06-29T10:46:04.546Z,19.37
2018-06-29T10:48:31.967Z,19.69
2018-06-29T10:50:59.387Z,18.37
2018-06-29T10:53:26.950Z,18.48
2018-06-29T10:55:54.374Z,19.10
2018-06-29T10:58:21.737Z,19.51
2018-06-29T11:00:49.331Z,20.90
2018-06-29T11:03:16.746Z,19.87
2018-06-29T11:05:44.198Z,21.17
2018-06-29T11:08:11.583Z,20.65
2018-06-29T11:10:38.966Z,20.86
2018-06-29T11:13:06.637Z,20.45
2018-06-29T11:15:34.252Z,20.04
2018-06-29T11:18:01.682Z,19.54
2018-06-29T11:20:29.091Z,19.27
2018-06-29T11:22:57.070Z,18.63
2018-06-29T11:25:25.186Z,19.74
2018-06-29T11:27:52.652Z,19.87
2018-06-29T11:30:20.140Z,19.26
2018-06-29T11:32:47.877Z,19.61
2018-06-29T11:35:15.268Z,18.98
2018-06-29T11:37:42.694Z,17.72
2018-06-29T11:40:10.991Z,18.81
2018-06-29T11:42:38.446Z,18.50
2018-06-29T11:45:08.119Z,17.92
2018-06-29T11:47:35.653Z,18.08
2018-06-29T11:50:03.250Z,17.49
2018-06-29T11:52:30.663Z,17.06
2018-06-29T11:54:58.553Z,17.19
2018-06-29T11:57:26.813Z,17.49
2018-06-29T11:59:54.934Z,17.38
2018-06-29T12:02:22.389Z,16.86
2018-06-29T12:04:52.017Z,16.65
2018-06-29T12:07:19.633Z,16.44
2018-06-29T12:09:47.800Z,16.59
2018-06-29T12:12:15.262Z,17.21
2018-06-29T12:14:42.941Z,18.41
2018-06-29T12:17:11.045Z,17.55
2018-06-29T12:19:39.415Z,17.17
2018-06-29T12:22:06.806Z,17.32
2018-06-29T12:24:34.298Z,17.45
2018-06-29T12:27:02.003Z,17.11
2018-06-29T12:29:30.125Z,16.55
2018-06-29T12:31:57.617Z,16.55
2018-06-29T12:34:25.102Z,16.85
2018-06-29T12:36:52.640Z,16.87
2018-06-29T12:39:20.384Z,15.86
2018-06-29T12:41:48.035Z,16.51
2018-06-29T12:44:15.574Z,16.03
2018-06-29T12:46:43.884Z,16.16
2018-06-29T12:49:11.483Z,16.02
2018-06-29T12:51:39.014Z,17.00
2018-06-29T12:54:06.608Z,17.61
2018-06-29T12:56:34.159Z,16.88
2018-06-29T12:59:01.590Z,16.30
2018-06-29T13:01:29.229Z,15.94
2018-06-29T13:03:57.289Z,16.96
2018-06-29T13:06:24.725Z,17.32
2018-06-29T13:08:52.188Z,16.73
2018-06-29T13:11:20.331Z,17.36
2018-06-29T13:13:47.796Z,17.30
2018-06-29T13:16:15.238Z,16.49
2018-06-29T13:18:42.688Z,16.21
2018-06-29T13:21:11.155Z,17.14
2018-06-29T13:23:38.467Z,16.98
2018-06-29T13:26:06.229Z,17.54
2018-06-29T13:28:33.557Z,17.39
2018-06-29T13:31:01.069Z,17.38
2018-06-29T13:33:28.533Z,18.09
2018-06-29T13:35:55.939Z,17.72
2018-06-29T13:38:23.583Z,17.11
2018-06-29T13:40:51.012Z,16.13
2018-06-29T13:43:18.337Z,16.37
2018-06-29T13:45:45.986Z,17.32
2018-06-29T13:48:14.110Z,18.31
2018-06-29T13:50:41.516Z,18.78
2018-06-29T13:53:08.922Z,19.59
2018-06-29T13:55:36.337Z,20.01
2018-06-29T13:58:03.842Z,20.53
2018-06-29T14:00:31.453Z,20.07
2018-06-29T14:02:59.467Z,19.80
2018-06-29T14:05:27.415Z,18.47
2018-06-29T14:07:54.819Z,18.20
2018-06-29T14:10:22.222Z,18.71
2018-06-29T14:12:49.951Z,19.53
2018-06-29T14:15:17.528Z,19.59
2018-06-29T14:17:45.012Z,19.88
2018-06-29T14:20:12.597Z,19.04
2018-06-29T14:22:39.914Z,18.96
2018-06-29T14:25:08.571Z,19.01
2018-06-29T14:27:36.802Z,19.84
2018-06-29T14:30:04.387Z,19.82
2018-06-29T14:32:31.762Z,20.54
2018-06-29T14:34:59.136Z,20.03
2018-06-29T14:37:26.548Z,20.23
2018-06-29T14:39:53.966Z,20.70
2018-06-29T14:42:21.350Z,20.52
2018-06-29T14:44:48.724Z,21.91
2018-06-29T14:47:16.171Z,21.70
2018-06-29T14:49:43.593Z,21.81
2018-06-29T14:52:10.979Z,21.40
2018-06-29T14:54:40.021Z,21.19
2018-06-29T14:57:08.123Z,20.67
2018-06-29T14:59:35.535Z,20.52
2018-06-29T15:02:02.966Z,20.05
2018-06-29T15:04:30.318Z,20.00
2018-06-29T15:06:57.992Z,20.28
2018-06-29T15:09:25.495Z,19.92
2018-06-29T15:11:52.909Z,20.88
2018-06-29T15:14:20.325Z,21.98
2018-06-29T15:16:47.718Z,21.72
2018-06-29T15:19:15.117Z,22.03
2018-06-29T15:21:43.159Z,21.55
2018-06-29T15:24:10.617Z,22.23
2018-06-29T15:26:38.027Z,22.42
2018-06-29T15:29:05.694Z,21.79
2018-06-29T15:31:33.872Z,22.33
2018-06-29T15:34:01.247Z,21.88
2018-06-29T15:36:28.632Z,22.09
2018-06-29T15:38:56.003Z,22.13
2018-06-29T15:41:23.363Z,22.46
2018-06-29T15:43:50.795Z,22.63
2018-06-29T15:46:19.104Z,23.26
2018-06-29T15:48:46.519Z,23.96
2018-06-29T15:51:14.430Z,23.40
2018-06-29T15:53:42.356Z,23.01
2018-06-29T15:56:09.915Z,22.46
2018-06-29T15:58:37.353Z,23.57
2018-06-29T16:01:04.843Z,23.36
2018-06-29T16:03:32.169Z,23.40
2018-06-29T16:05:59.556Z,22.67
2018-06-29T16:08:26.963Z,22.71
2018-06-29T16:10:55.928Z,22.67
2018-06-29T16:13:23.894Z,22.70
2018-06-29T16:15:52.006Z,23.06
2018-06-29T16:18:19.737Z,22.76
2018-06-29T16:20:47.292Z,22.67
2018-06-29T16:23:14.758Z,23.21
2018-06-29T16:25:43.188Z,22.87
2018-06-29T16:28:10.717Z,22.85
2018-06-29T16:30:38.291Z,22.72
2018-06-29T16:33:06.055Z,22.92
2018-06-29T16:35:34.225Z,22.68
2018-06-29T16:38:03.981Z,22.56
2018-06-29T16:40:31.669Z,22.73
2018-06-29T16:42:59.978Z,22.93
2018-06-29T16:45:29.261Z,22.94
2018-06-29T16:47:57.037Z,23.17
2018-06-29T16:50:24.671Z,23.40
2018-06-29T16:52:52.333Z,23.63
2018-06-29T16:55:20.546Z,24.14
2018-06-29T16:57:50.016Z,24.12
2018-06-29T17:00:18.316Z,24.37
2018-06-29T17:02:50.816Z,24.79
2018-06-29T17:05:18.814Z,24.65
2018-06-29T17:07:47.179Z,24.94
2018-06-29T17:10:15.745Z,25.09
2018-06-29T17:12:43.283Z,25.00
2018-06-29T17:15:11.061Z,25.54
2018-06-29T17:17:40.203Z,25.71
2018-06-29T17:20:08.760Z,25.87
2018-06-29T17:22:36.761Z,26.57
2018-06-29T17:25:05.260Z,26.12
2018-06-29T17:27:33.659Z,25.68
2018-06-29T17:30:02.293Z,25.97
2018-06-29T17:32:30.508Z,26.15
2018-06-29T17:34:58.120Z,25.79
2018-06-29T17:37:27.199Z,26.43
2018-06-29T17:39:57.123Z,26.33
2018-06-29T17:42:27.190Z,26.80
2018-06-29T17:44:56.556Z,27.05
2018-06-29T17:47:24.433Z,26.70
2018-06-29T17:49:52.122Z,26.60
2018-06-29T17:52:19.845Z,26.87
2018-06-29T17:54:47.411Z,26.68
2018-06-29T17:57:15.464Z,26.99
2018-06-29T17:59:45.953Z,26.61
2018-06-29T18:02:13.971Z,27.15
2018-06-29T18:04:43.818Z,27.13
2018-06-29T18:07:11.521Z,27.21
2018-06-29T18:09:40.262Z,27.44
2018-06-29T18:12:07.725Z,27.74
2018-06-29T18:14:35.123Z,27.90
2018-06-29T18:17:02.542Z,28.43
2018-06-29T18:19:29.961Z,28.80
2018-06-29T18:21:57.518Z,28.81
2018-06-29T18:24:24.983Z,29.26
2018-06-29T18:26:52.442Z,29.61
2018-06-29T18:29:20.079Z,29.82
2018-06-29T18:31:48.261Z,30.63
2018-06-29T18:34:15.820Z,30.89
2018-06-29T18:36:44.163Z,31.31
2018-06-29T18:39:15.182Z,31.62
2018-06-29T18:41:44.350Z,32.12
2018-06-29T18:44:12.452Z,32.17
2018-06-29T18:46:40.368Z,32.33
2018-06-29T18:49:09.183Z,32.79
2018-06-29T18:51:37.418Z,32.88
2018-06-29T18:54:06.175Z,32.75
2018-06-29T18:56:34.997Z,33.04
2018-06-29T18:59:03.323Z,33.88
2018-06-29T19:01:32.256Z,33.56
2018-06-29T19:04:02.283Z,33.77
2018-06-29T19:06:30.953Z,34.01
2018-06-29T19:09:00.209Z,34.56
2018-06-29T19:11:27.667Z,34.16
2018-06-29T19:13:55.320Z,34.88
2018-06-29T19:16:24.926Z,35.28
2018-06-29T19:18:54.852Z,35.44
2018-06-29T19:21:26.807Z,36.19
2018-06-29T19:23:55.423Z,38.12
2018-06-29T19:26:25.251Z,37.77
2018-06-29T19:28:53.483Z,38.26
2018-06-29T19:31:22.804Z,38.53
2018-06-29T19:33:53.331Z,39.01
2018-06-29T19:36:22.339Z,39.90
2018-06-29T19:38:51.418Z,40.35
2018-06-29T19:41:20.562Z,39.54
2018-06-29T19:43:48.938Z,40.33
2018-06-29T19:46:16.744Z,41.00
2018-06-29T19:48:44.437Z,41.83
2018-06-29T19:51:12.758Z,42.36
2018-06-29T19:53:40.781Z,43.30
2018-06-29T19:56:09.174Z,43.93
2018-06-29T19:58:36.916Z,43.62
2018-06-29T20:01:04.912Z,43.80
2018-06-29T20:03:32.868Z,44.69
2018-06-29T20:06:02.232Z,44.62
2018-06-29T20:08:32.526Z,44.14
2018-06-29T20:11:01.155Z,43.95
2018-06-29T20:13:28.640Z,45.19
2018-06-29T20:15:56.961Z,46.12
2018-06-29T20:18:24.611Z,45.95
2018-06-29T20:20:52.877Z,45.96
2018-06-29T20:23:21.758Z,46.49
2018-06-29T20:25:50.641Z,46.94
2018-06-29T20:28:19.142Z,47.32
2018-06-29T20:30:47.324Z,47.68
2018-06-29T20:33:17.205Z,47.64
2018-06-29T20:35:46.094Z,47.41
2018-06-29T20:38:13.394Z,48.29
2018-06-29T20:40:40.700Z,48.38
2018-06-29T20:43:07.982Z,49.75
2018-06-29T20:45:35.290Z,49.28
2018-06-29T20:48:02.585Z,48.87
2018-06-29T20:50:29.860Z,49.25
2018-06-29T20:52:57.169Z,49.54
2018-06-29T20:55:24.442Z,49.74
2018-06-29T20:57:51.726Z,49.03
2018-06-29T21:00:20.027Z,49.13
2018-06-29T21:02:47.269Z,49.46
2018-06-29T21:05:14.542Z,48.63
2018-06-29T21:07:41.784Z,48.67
2018-06-29T21:10:09.089Z,48.97
2018-06-29T21:12:36.371Z,49.04
2018-06-29T21:15:03.750Z,49.54
2018-06-29T21:17:30.999Z,49.36
2018-06-29T21:19:58.219Z,49.25
2018-06-29T21:22:25.464Z,49.56
2018-06-29T21:24:52.681Z,49.94
2018-06-29T21:27:19.982Z,50.33
2018-06-29T21:29:47.227Z,50.40
2018-06-29T21:32:14.622Z,50.33
2018-06-29T21:34:41.899Z,50.13
2018-06-29T21:37:09.336Z,50.63
2018-06-29T21:39:36.608Z,50.53
2018-06-29T21:42:04.833Z,50.64
2018-06-29T21:44:32.106Z,51.12
2018-06-29T21:46:59.375Z,50.85
2018-06-29T21:49:26.594Z,51.14
2018-06-29T21:51:53.856Z,51.92
2018-06-29T21:54:21.163Z,51.79
2018-06-29T21:56:48.426Z,52.12
2018-06-29T21:59:15.687Z,51.90
2018-06-29T22:01:42.986Z,53.44
2018-06-29T22:04:10.336Z,53.91
2018-06-29T22:06:37.624Z,54.10
2018-06-29T22:09:06.562Z,54.36
2018-06-29T22:11:33.834Z,54.57
2018-06-29T22:14:01.118Z,54.98
2018-06-29T22:16:28.402Z,54.49
2018-06-29T22:18:55.703Z,54.82
2018-06-29T22:21:22.948Z,54.71
2018-06-29T22:23:50.197Z,54.87
2018-06-29T22:26:17.473Z,54.54
2018-06-29T22:28:44.863Z,55.00
2018-06-29T22:31:12.163Z,55.28
2018-06-29T22:33:39.436Z,55.75
2018-06-29T22:36:06.746Z,56.29
2018-06-29T22:38:34.012Z,56.74
2018-06-29T22:41:01.253Z,57.14
2018-06-29T22:43:28.546Z,58.44
2018-06-29T22:45:55.897Z,60.64
2018-06-29T22:48:23.157Z,61.55
2018-06-29T22:50:50.389Z,61.64
2018-06-29T22:53:17.640Z,61.58
2018-06-29T22:55:45.572Z,62.43
2018-06-29T22:58:12.823Z,61.35
2018-06-29T23:00:40.082Z,61.16
2018-06-29T23:03:09.648Z,61.98
2018-06-29T23:05:36.983Z,63.06
2018-06-29T23:08:04.876Z,63.38
2018-06-29T23:10:32.167Z,63.18
2018-06-29T23:12:59.419Z,63.08
2018-06-29T23:15:26.714Z,62.66
2018-06-29T23:17:53.962Z,63.12
2018-06-29T23:20:21.224Z,63.37
2018-06-29T23:22:48.498Z,64.62
2018-06-29T23:25:16.006Z,64.58
2018-06-29T23:27:43.242Z,65.44
2018-06-29T23:30:10.523Z,65.58
2018-06-29T23:32:37.778Z,65.27
2018-06-29T23:35:05.231Z,66.12
2018-06-29T23:37:32.498Z,65.63
2018-06-29T23:39:59.807Z,65.99
2018-06-29T23:42:27.073Z,65.72
2018-06-29T23:44:54.337Z,66.60
2018-06-29T23:47:21.659Z,65.95
2018-06-29T23:49:48.982Z,66.31
2018-06-29T23:52:16.333Z,65.83
2018-06-29T23:54:43.650Z,65.82
2018-06-29T23:57:11.001Z,65.86
2018-06-29T23:59:38.242Z,65.70
